Time;durP1;ratioP1;P1;durP2;ratioP2;P2;SDS_P1;SDS_P2;PMS_P1;PMS_P2;Temp;Humidity;BMP_temperature;BMP_pressure;BME280_temperature;BME280_humidity;BME280_pressure;Samples;Min_cycle;Max_cycle;Signal;HPM_P1;HPM_P2
2023/11/15 00:13:31;;;;;;;9.60;4.20;;;;;;;12.47;100.00;98438.33;672788;1265;139568;-78
2023/11/15 00:29:09;;;;;;;8.70;4.60;;;;;;;12.42;100.00;98444.09;672743;1265;139763;-78
2023/11/15 00:44:46;;;;;;;13.50;5.20;;;;;;;12.40;100.00;98448.84;675230;1265;139077;-78
2023/11/15 01:00:27;;;;;;;9.60;4.70;;;;;;;12.43;100.00;98456.75;675579;1275;139702;-77
2023/11/15 01:16:05;;;;;;;15.30;5.00;;;;;;;12.41;100.00;98463.41;675200;1262;139590;-78
2023/11/15 01:31:42;;;;;;;9.40;4.40;;;;;;;12.41;100.00;98458.56;672552;1266;139138;-78
2023/11/15 01:47:19;;;;;;;13.50;5.00;;;;;;;12.41;100.00;98448.54;675750;1263;139268;-78
2023/11/15 02:02:56;;;;;;;10.50;4.60;;;;;;;12.39;100.00;98450.90;674032;1264;140206;-78
2023/11/15 02:18:34;;;;;;;6.60;4.00;;;;;;;12.14;100.00;98452.77;676152;1265;138920;-78
2023/11/15 02:34:10;;;;;;;11.00;3.80;;;;;;;12.11;100.00;98460.11;679485;1262;139598;-78
2023/11/15 02:49:47;;;;;;;10.90;5.30;;;;;;;12.15;100.00;98463.17;673388;1262;139476;-78
2023/11/15 03:05:24;;;;;;;7.10;3.60;;;;;;;12.14;100.00;98479.63;671937;1263;138899;-80
2023/11/15 03:21:03;;;;;;;8.60;3.70;;;;;;;12.09;100.00;98496.34;671870;1263;138892;-77
2023/11/15 03:36:41;;;;;;;9.80;3.70;;;;;;;12.05;100.00;98509.06;671499;1265;138833;-79
2023/11/15 03:52:18;;;;;;;8.10;4.20;;;;;;;11.97;100.00;98516.50;674132;1276;139215;-78
2023/11/15 04:07:56;;;;;;;12.50;4.80;;;;;;;12.01;100.00;98523.09;679193;1263;139498;-77
2023/11/15 04:23:33;;;;;;;10.60;4.40;;;;;;;11.98;100.00;98533.37;675579;1263;139090;-78
2023/11/15 04:39:10;;;;;;;11.00;3.80;;;;;;;11.95;100.00;98548.45;674420;1260;139925;-77
2023/11/15 04:54:47;;;;;;;10.80;4.00;;;;;;;11.82;100.00;98561.36;676695;1259;138811;-77
2023/11/15 05:10:25;;;;;;;7.70;4.00;;;;;;;11.74;100.00;98564.94;677940;1264;139449;-78
2023/11/15 05:26:02;;;;;;;10.50;6.10;;;;;;;11.77;100.00;98582.29;675068;1264;139065;-78
2023/11/15 05:41:39;;;;;;;7.60;5.50;;;;;;;11.69;100.00;98605.46;677677;1260;139211;-78
2023/11/15 05:57:11;;;;;;;14.90;10.40;;;;;;;11.57;100.00;98630.96;674935;1263;138759;-79
2023/11/15 06:12:42;;;;;;;12.20;8.70;;;;;;;11.37;100.00;98658.23;676780;1264;139181;-78
2023/11/15 06:28:19;;;;;;;56.40;19.90;;;;;;;11.12;100.00;98682.30;678496;1264;139559;-78
2023/11/15 06:43:56;;;;;;;80.60;34.80;;;;;;;11.01;100.00;98709.85;675582;1260;139327;-78
2023/11/15 06:59:33;;;;;;;13.10;8.00;;;;;;;10.78;100.00;98738.00;676404;1263;139060;-77
2023/11/15 07:15:15;;;;;;;22.10;9.70;;;;;;;10.61;100.00;98765.40;678096;1260;140074;-78
2023/11/15 07:30:55;;;;;;;33.60;22.80;;;;;;;10.48;100.00;98791.19;672928;1259;139598;-78
2023/11/15 07:46:32;;;;;;;22.20;13.70;;;;;;;10.30;100.00;98815.70;682204;1263;139581;-79
2023/11/15 08:02:09;;;;;;;21.00;14.80;;;;;;;10.26;100.00;98852.02;678964;1259;142370;-79
2023/11/15 08:17:47;;;;;;;21.20;13.20;;;;;;;9.66;100.00;98877.30;674836;1276;138902;-79
2023/11/15 08:33:26;;;;;;;24.20;13.90;;;;;;;9.29;100.00;98908.27;675925;1259;140996;-78
2023/11/15 08:49:07;;;;;;;38.00;17.70;;;;;;;9.15;100.00;98934.11;675898;1275;138848;-79
2023/11/15 09:04:50;;;;;;;19.00;11.10;;;;;;;9.12;100.00;98964.28;677007;1263;139961;-78
2023/11/15 09:20:29;;;;;;;22.40;10.80;;;;;;;8.99;100.00;98984.27;675766;1264;139186;-77
2023/11/15 09:35:59;;;;;;;13.80;8.40;;;;;;;8.88;100.00;98998.45;681030;1259;140056;-78
2023/11/15 09:51:22;;;;;;;13.70;10.00;;;;;;;8.83;100.00;99019.54;676151;1262;142521;-80
2023/11/15 10:06:59;;;;;;;18.50;10.60;;;;;;;9.02;100.00;99040.80;680995;1262;139353;-78
2023/11/15 10:22:37;;;;;;;18.00;10.80;;;;;;;9.63;98.40;99061.52;676738;1275;140487;-77
2023/11/15 10:38:14;;;;;;;19.00;11.70;;;;;;;9.47;98.37;99078.86;676430;1263;139980;-78
2023/11/15 10:53:52;;;;;;;20.90;11.50;;;;;;;8.70;100.00;99108.52;677112;1262;139173;-78
2023/11/15 11:09:57;;;;;;;21.10;11.60;;;;;;;8.56;100.00;99137.59;679852;1259;141263;-77
2023/11/15 11:25:38;;;;;;;20.20;11.80;;;;;;;8.42;100.00;99163.09;672748;1260;139177;-78
2023/11/15 11:41:25;;;;;;;19.40;11.70;;;;;;;8.53;100.00;99191.92;670716;1262;10136784;-79
2023/11/15 11:57:03;;;;;;;22.90;11.00;;;;;;;8.61;100.00;99227.05;679365;1259;140464;-79
2023/11/15 12:12:41;;;;;;;16.30;8.60;;;;;;;8.62;100.00;99265.41;682181;1262;140177;-78
2023/11/15 12:28:21;;;;;;;23.00;11.20;;;;;;;8.49;99.92;99294.25;680069;1259;139579;-79
2023/11/15 12:44:12;;;;;;;35.20;21.20;;;;;;;8.32;99.48;99321.18;679505;1259;139675;-78
2023/11/15 12:59:51;;;;;;;127.30;46.30;;;;;;;8.39;99.44;99344.10;680209;1259;138882;-78
2023/11/15 13:15:28;;;;;;;13.50;8.00;;;;;;;8.36;99.02;99371.34;678816;1259;139151;-78
2023/11/15 13:31:08;;;;;;;17.10;9.40;;;;;;;8.31;99.28;99403.05;675863;1262;139978;-78
2023/11/15 13:46:48;;;;;;;21.80;12.20;;;;;;;8.48;99.72;99430.05;678463;1262;138609;-78
2023/11/15 14:02:26;;;;;;;22.40;12.50;;;;;;;8.41;99.75;99456.77;677498;1262;142051;-78
2023/11/15 14:18:03;;;;;;;24.80;13.00;;;;;;;8.30;99.75;99490.60;675946;1262;138931;-78
2023/11/15 14:33:40;;;;;;;27.10;15.00;;;;;;;8.19;99.30;99513.99;678918;1259;139785;-79
2023/11/15 14:49:17;;;;;;;39.00;20.30;;;;;;;7.97;98.88;99548.01;679677;1262;138773;-78
2023/11/15 15:04:54;;;;;;;29.10;14.70;;;;;;;7.95;99.13;99599.55;675973;1262;138545;-78
2023/11/15 15:20:32;;;;;;;33.80;18.10;;;;;;;7.93;99.34;99624.27;676401;1260;139450;-79
2023/11/15 15:36:02;;;;;;;28.50;15.30;;;;;;;7.86;99.39;99655.02;677980;1262;139207;-79
2023/11/15 15:51:25;;;;;;;34.10;16.90;;;;;;;7.78;99.66;99689.31;676670;1262;140014;-79
2023/11/15 16:07:04;;;;;;;90.50;53.60;;;;;;;7.79;99.86;99721.79;674928;1259;138992;-79
2023/11/15 16:22:40;;;;;;;76.60;36.70;;;;;;;7.88;99.80;99751.30;673838;1262;139072;-79
2023/11/15 16:38:17;;;;;;;143.60;61.20;;;;;;;7.90;99.60;99772.52;679164;1265;139559;-77
2023/11/15 16:53:54;;;;;;;83.60;38.80;;;;;;;7.77;99.41;99792.28;677890;1261;141314;-78
2023/11/15 17:09:31;;;;;;;274.90;137.50;;;;;;;7.62;99.93;99809.16;679874;1259;139269;-78
2023/11/15 17:25:11;;;;;;;139.60;77.80;;;;;;;7.60;100.00;99833.73;675619;1259;139403;-78
2023/11/15 17:40:49;;;;;;;43.90;29.70;;;;;;;7.57;99.98;99863.52;680621;1261;142047;-78
2023/11/15 17:56:26;;;;;;;46.60;24.90;;;;;;;7.58;98.90;99887.16;673451;1262;139938;-78
2023/11/15 18:12:06;;;;;;;99.00;43.80;;;;;;;7.41;98.26;99916.99;679120;1275;139250;-80
2023/11/15 18:27:45;;;;;;;237.00;99.20;;;;;;;7.29;98.40;99925.64;673382;1262;140122;-79
2023/11/15 18:43:22;;;;;;;95.00;41.50;;;;;;;7.27;97.88;99936.10;676869;1262;139227;-79
2023/11/15 18:59:01;;;;;;;42.10;20.90;;;;;;;7.01;97.70;99956.00;678357;1262;140039;-78
2023/11/15 19:14:39;;;;;;;76.00;36.10;;;;;;;6.73;97.61;99971.40;675643;1263;139317;-78
2023/11/15 19:30:16;;;;;;;53.60;25.10;;;;;;;6.58;97.97;99984.67;679261;1266;140802;-78
2023/11/15 19:45:55;;;;;;;55.20;28.80;;;;;;;6.40;97.84;99998.02;677107;1265;139340;-78
2023/11/15 20:01:33;;;;;;;70.40;27.70;;;;;;;6.20;97.71;100028.18;672874;1263;139073;-78
2023/11/15 20:17:10;;;;;;;52.70;22.50;;;;;;;6.40;98.35;100048.77;673870;1266;139442;-77
2023/11/15 20:32:47;;;;;;;55.30;25.90;;;;;;;6.57;99.01;100063.86;678024;1263;139758;-78
2023/11/15 20:48:27;;;;;;;41.20;20.40;;;;;;;6.30;98.27;100081.13;675722;1263;139311;-78
2023/11/15 21:04:19;;;;;;;48.80;21.60;;;;;;;5.77;97.53;100084.67;673184;1269;139302;-79
2023/11/15 21:19:56;;;;;;;94.80;47.00;;;;;;;5.29;97.52;100088.73;680350;1263;139167;-79
2023/11/15 21:35:33;;;;;;;46.00;22.10;;;;;;;4.69;98.41;100094.75;676835;1261;139909;-78
2023/11/15 21:51:10;;;;;;;47.10;24.00;;;;;;;3.76;100.00;100110.48;677088;1261;139980;-79
2023/11/15 22:06:48;;;;;;;54.10;32.80;;;;;;;3.69;100.00;100128.20;679623;1260;140120;-79
2023/11/15 22:22:33;;;;;;;34.70;18.40;;;;;;;4.03;100.00;100144.41;681025;1262;139477;-79
2023/11/15 22:38:10;;;;;;;33.00;15.50;;;;;;;4.14;100.00;100151.67;678133;1263;139371;-79
2023/11/15 22:53:47;;;;;;;32.00;15.10;;;;;;;3.94;100.00;100170.45;678655;1263;139992;-79
2023/11/15 23:09:25;;;;;;;36.00;17.40;;;;;;;3.81;100.00;100183.85;679012;1262;139967;-79
2023/11/15 23:25:02;;;;;;;33.20;16.90;;;;;;;3.86;100.00;100187.52;681357;1259;139788;-79
2023/11/15 23:40:39;;;;;;;39.10;19.30;;;;;;;3.69;100.00;100174.75;674153;1261;10138257;-79
2023/11/15 23:56:18;;;;;;;83.00;44.80;;;;;;;3.32;100.00;100170.16;677079;1260;140157;-79
